createdAt,value
2023-04-05T00:01:55.620Z,3.30
2023-04-05T00:04:23.780Z,2.90
2023-04-05T00:06:52.853Z,2.97
2023-04-05T00:09:20.605Z,3.30
2023-04-05T00:11:47.615Z,3.23
2023-04-05T00:14:14.388Z,3.37
2023-04-05T00:16:41.953Z,3.37
2023-04-05T00:19:09.009Z,3.47
2023-04-05T00:21:35.655Z,3.53
2023-04-05T00:24:02.811Z,3.57
2023-04-05T00:26:29.399Z,3.70
2023-04-05T00:28:57.787Z,3.70
2023-04-05T00:31:26.923Z,3.33
2023-04-05T00:33:53.581Z,4.10
2023-04-05T00:36:21.621Z,3.53
2023-04-05T00:38:48.464Z,3.70
2023-04-05T00:41:15.152Z,3.47
2023-04-05T00:43:45.117Z,3.20
2023-04-05T00:46:11.817Z,3.33
2023-04-05T00:48:38.430Z,3.13
2023-04-05T00:51:05.149Z,3.23
2023-04-05T00:53:32.205Z,3.10
2023-04-05T00:55:58.759Z,3.03
2023-04-05T00:58:25.345Z,2.80
2023-04-05T01:00:59.571Z,3.07
2023-04-05T01:03:27.713Z,3.50
2023-04-05T01:05:57.452Z,3.53
2023-04-05T01:08:27.113Z,2.97
2023-04-05T01:10:59.165Z,2.60
2023-04-05T01:13:25.894Z,2.97
2023-04-05T01:15:52.520Z,3.00
2023-04-05T01:18:19.358Z,2.80
2023-04-05T01:20:46.445Z,3.03
2023-04-05T01:23:51.636Z,2.60
2023-04-05T01:26:31.842Z,3.13
2023-04-05T01:29:22.160Z,2.83
2023-04-05T01:32:03.109Z,2.80
2023-04-05T01:34:33.973Z,2.77
2023-04-05T01:37:02.265Z,3.10
2023-04-05T01:39:28.837Z,3.03
2023-04-05T01:41:59.416Z,3.53
2023-04-05T02:17:08.216Z,2.67
2023-04-05T02:19:41.121Z,2.30
2023-04-05T02:22:08.307Z,2.47
2023-04-05T02:24:35.253Z,2.50
2023-04-05T02:27:01.854Z,2.70
2023-04-05T02:29:28.502Z,2.67
2023-04-05T02:31:55.486Z,2.30
2023-04-05T02:34:22.965Z,2.77
2023-04-05T02:36:52.886Z,2.37
2023-04-05T02:39:19.534Z,2.77
2023-04-05T02:41:46.290Z,3.67
2023-04-05T02:44:13.238Z,3.70
2023-04-05T02:46:40.847Z,3.80
2023-04-05T02:49:07.882Z,4.73
2023-04-05T02:51:37.078Z,4.50
2023-04-05T02:54:07.437Z,4.23
2023-04-05T02:56:36.734Z,4.47
2023-04-05T02:59:09.570Z,4.00
2023-04-05T03:01:37.120Z,3.47
2023-04-05T03:04:04.951Z,3.47
2023-04-05T03:06:32.994Z,2.77
2023-04-05T03:09:02.658Z,2.77
2023-04-05T03:11:29.478Z,2.57
2023-04-05T03:13:59.577Z,2.70
2023-04-05T03:16:40.335Z,2.50
2023-04-05T03:19:22.456Z,2.43
2023-04-05T03:21:52.719Z,2.30
2023-04-05T03:24:33.089Z,2.00
2023-04-05T03:27:03.304Z,2.57
2023-04-05T03:29:36.504Z,2.70
2023-04-05T03:32:15.258Z,2.73
2023-04-05T03:34:48.901Z,2.40
2023-04-05T03:37:17.194Z,2.50
2023-04-05T03:39:49.667Z,2.70
2023-04-05T03:42:19.276Z,3.43
2023-04-05T03:44:45.869Z,5.10
2023-04-05T03:47:13.286Z,3.07
2023-04-05T03:49:43.847Z,4.90
2023-04-05T03:52:10.540Z,4.57
2023-04-05T03:54:43.538Z,3.10
2023-04-05T03:57:13.640Z,3.17
2023-04-05T03:59:42.460Z,2.70
2023-04-05T04:02:09.297Z,3.37
2023-04-05T04:04:36.403Z,2.73
2023-04-05T04:07:03.181Z,3.50
2023-04-05T04:09:32.609Z,3.03
2023-04-05T04:12:06.160Z,2.93
2023-04-05T04:14:35.075Z,3.37
2023-04-05T04:17:34.660Z,3.50
2023-04-05T04:20:30.434Z,3.10
2023-04-05T04:23:10.611Z,4.33
2023-04-05T04:25:58.093Z,3.97
2023-04-05T04:28:43.986Z,15.87
2023-04-05T04:31:29.070Z,9.47
2023-04-05T04:34:25.634Z,5.33
2023-04-05T04:37:07.548Z,4.97
2023-04-05T04:39:52.754Z,4.63
2023-04-05T04:42:39.043Z,4.27
2023-04-05T04:45:10.925Z,4.93
2023-04-05T04:47:54.943Z,3.80
2023-04-05T04:50:35.181Z,3.50
2023-04-05T04:53:04.542Z,3.87
2023-04-05T04:55:33.682Z,4.00
2023-04-05T04:58:03.820Z,4.07
2023-04-05T05:00:32.236Z,4.40
2023-04-05T05:03:00.861Z,4.53
2023-04-05T05:05:27.649Z,5.13
2023-04-05T05:07:54.261Z,4.03
2023-04-05T05:10:21.120Z,4.07
2023-04-05T05:12:51.849Z,3.60
2023-04-05T05:15:20.217Z,4.50
2023-04-05T05:17:47.278Z,4.23
2023-04-05T05:20:14.180Z,3.93
2023-04-05T05:22:47.480Z,4.13
2023-04-05T05:25:14.356Z,4.30
2023-04-05T05:27:41.393Z,4.07
2023-04-05T05:30:09.547Z,3.97
2023-04-05T05:32:36.205Z,4.20
2023-04-05T05:35:03.064Z,3.90
2023-04-05T05:37:33.183Z,4.17
2023-04-05T05:39:59.982Z,4.43
2023-04-05T05:42:27.525Z,4.13
2023-04-05T05:44:56.197Z,3.60
2023-04-05T05:47:22.831Z,3.87
2023-04-05T05:49:52.198Z,4.20
2023-04-05T05:52:18.868Z,4.07
2023-04-05T05:54:45.569Z,3.73
2023-04-05T05:57:12.653Z,2.97
2023-04-05T05:59:42.935Z,3.90
2023-04-05T06:02:10.847Z,3.20
2023-04-05T06:04:38.364Z,3.40
2023-04-05T06:07:05.356Z,5.57
2023-04-05T06:09:35.469Z,3.70
2023-04-05T06:12:03.368Z,3.30
2023-04-05T06:14:30.115Z,4.10
2023-04-05T06:16:57.133Z,3.80
2023-04-05T06:19:24.225Z,3.63
2023-04-05T06:21:51.261Z,2.80
2023-04-05T06:24:18.320Z,2.80
2023-04-05T06:26:48.880Z,2.33
2023-04-05T06:29:16.880Z,2.50
2023-04-05T06:31:46.665Z,1.73
2023-04-05T06:34:14.919Z,1.60
2023-04-05T06:36:43.023Z,1.97
2023-04-05T06:39:09.770Z,1.60
2023-04-05T06:41:39.692Z,1.50
2023-04-05T06:44:06.845Z,1.50
2023-04-05T06:46:33.658Z,1.90
2023-04-05T06:49:03.787Z,2.27
2023-04-05T06:51:31.580Z,1.60
2023-04-05T06:53:59.006Z,1.60
2023-04-05T06:56:27.286Z,2.10
2023-04-05T06:58:55.721Z,1.93
2023-04-05T07:01:24.936Z,3.20
2023-04-05T07:03:52.134Z,3.87
2023-04-05T07:06:18.761Z,5.80
2023-04-05T07:08:45.439Z,4.40
2023-04-05T07:11:13.031Z,4.67
2023-04-05T07:13:39.813Z,5.10
2023-04-05T07:16:06.797Z,1.87
2023-04-05T07:18:33.575Z,1.23
2023-04-05T07:21:02.361Z,1.73
2023-04-05T07:23:29.097Z,1.53
2023-04-05T07:25:56.435Z,1.50
2023-04-05T07:28:23.262Z,2.80
2023-04-05T07:30:50.788Z,3.37
2023-04-05T07:33:17.669Z,1.53
2023-04-05T07:35:45.819Z,1.60
2023-04-05T07:38:15.312Z,1.93
2023-04-05T07:40:42.642Z,4.40
2023-04-05T07:43:10.118Z,2.57
2023-04-05T07:45:37.011Z,2.43
2023-04-05T07:48:03.795Z,2.00
2023-04-05T07:50:30.526Z,4.40
2023-04-05T07:52:57.307Z,2.10
2023-04-05T07:55:24.795Z,2.03
2023-04-05T07:57:51.708Z,1.70
2023-04-05T08:00:19.498Z,1.50
2023-04-05T08:02:46.547Z,1.93
2023-04-05T08:05:13.277Z,1.70
2023-04-05T08:07:39.893Z,2.37
2023-04-05T08:10:06.712Z,1.97
2023-04-05T08:12:33.753Z,1.67
2023-04-05T08:15:00.374Z,2.13
2023-04-05T08:17:28.408Z,1.90
2023-04-05T08:19:56.292Z,1.70
2023-04-05T08:22:22.924Z,1.40
2023-04-05T08:24:49.844Z,1.33
2023-04-05T08:27:17.067Z,1.10
2023-04-05T08:29:44.497Z,1.53
2023-04-05T08:32:11.380Z,1.57
2023-04-05T08:34:39.246Z,1.47
2023-04-05T08:37:05.813Z,1.27
2023-04-05T08:39:34.711Z,1.40
2023-04-05T08:42:02.760Z,1.50
2023-04-05T08:44:34.637Z,1.60
2023-04-05T08:47:01.357Z,1.70
2023-04-05T08:49:27.990Z,3.03
2023-04-05T08:51:55.023Z,1.70
2023-04-05T08:54:21.780Z,1.20
2023-04-05T08:56:49.310Z,1.00
2023-04-05T08:59:17.241Z,1.10
2023-04-05T09:01:44.523Z,1.60
2023-04-05T09:04:33.596Z,1.43
2023-04-05T09:07:01.702Z,1.07
2023-04-05T09:09:28.887Z,1.03
2023-04-05T09:11:58.391Z,1.30
2023-04-05T09:14:25.018Z,1.00
2023-04-05T09:16:51.713Z,0.93
2023-04-05T09:19:18.412Z,1.30
2023-04-05T09:22:03.788Z,1.03
2023-04-05T09:24:43.093Z,1.17
2023-04-05T09:27:13.178Z,2.03
2023-04-05T09:29:40.698Z,1.53
2023-04-05T09:32:08.818Z,2.17
2023-04-05T09:34:38.715Z,1.73
2023-04-05T09:37:18.400Z,5.57
2023-04-05T09:39:45.400Z,1.70
2023-04-05T09:42:13.237Z,1.57
2023-04-05T09:44:54.291Z,1.27
2023-04-05T09:47:21.859Z,1.90
2023-04-05T09:49:52.970Z,1.10
2023-04-05T09:52:28.920Z,1.13
2023-04-05T09:54:56.779Z,1.00
2023-04-05T09:57:27.593Z,2.10
2023-04-05T09:59:54.453Z,0.83
2023-04-05T10:02:24.250Z,4.17
2023-04-05T10:04:51.182Z,1.50
2023-04-05T10:07:18.477Z,1.27
2023-04-05T10:09:46.169Z,1.50
2023-04-05T10:12:14.004Z,1.40
2023-04-05T10:14:40.745Z,0.97
2023-04-05T10:17:07.352Z,1.60
2023-04-05T10:19:33.934Z,1.00
2023-04-05T10:22:01.128Z,1.97
2023-04-05T10:24:36.917Z,1.40
2023-04-05T10:27:13.636Z,1.70
2023-04-05T10:29:45.554Z,1.40
2023-04-05T10:32:15.186Z,1.37
2023-04-05T10:35:00.404Z,1.30
2023-04-05T10:37:30.792Z,1.40
2023-04-05T10:39:57.445Z,2.03
2023-04-05T10:42:35.134Z,1.33
2023-04-05T10:45:05.105Z,1.30
2023-04-05T10:47:31.955Z,2.57
2023-04-05T10:49:59.264Z,1.67
2023-04-05T10:52:25.904Z,1.10
2023-04-05T10:54:52.763Z,1.17
2023-04-05T10:57:19.498Z,1.37
2023-04-05T10:59:46.830Z,1.30
2023-04-05T11:02:13.869Z,1.07
2023-04-05T11:04:42.298Z,1.13
2023-04-05T11:07:13.149Z,1.10
2023-04-05T11:10:00.858Z,1.40
2023-04-05T11:12:48.611Z,0.73
2023-04-05T11:15:31.816Z,0.90
2023-04-05T11:18:11.923Z,1.00
2023-04-05T11:20:48.160Z,1.00
2023-04-05T11:23:15.724Z,1.20
2023-04-05T11:25:46.176Z,1.13
2023-04-05T11:28:29.105Z,1.77
2023-04-05T11:30:59.427Z,1.20
2023-04-05T11:33:55.398Z,1.50
2023-04-05T11:36:29.526Z,1.70
2023-04-05T11:39:14.922Z,1.57
2023-04-05T11:41:41.509Z,1.40
2023-04-05T11:44:10.834Z,1.20
2023-04-05T11:46:37.550Z,1.33
2023-04-05T11:49:04.212Z,1.40
2023-04-05T11:51:31.587Z,1.07
2023-04-05T11:53:58.986Z,1.20
2023-04-05T11:56:25.770Z,1.00
2023-04-05T11:58:52.380Z,1.40
2023-04-05T12:01:22.056Z,1.03
2023-04-05T12:03:53.287Z,1.07
2023-04-05T12:06:21.668Z,3.47
2023-04-05T12:08:51.231Z,1.43
2023-04-05T12:11:25.292Z,1.10
2023-04-05T12:13:56.410Z,1.30
2023-04-05T12:16:23.307Z,1.30
2023-04-05T12:18:56.157Z,1.63
2023-04-05T12:21:23.170Z,1.13
2023-04-05T12:23:50.120Z,1.20
2023-04-05T12:26:16.883Z,1.20
2023-04-05T12:29:12.988Z,1.37
2023-04-05T12:31:43.833Z,1.50
2023-04-05T12:34:12.899Z,1.60
2023-04-05T12:36:39.722Z,1.60
2023-04-05T12:39:08.183Z,1.33
2023-04-05T12:41:35.267Z,2.40
2023-04-05T12:44:05.554Z,1.33
2023-04-05T12:46:41.359Z,1.97
2023-04-05T12:49:11.817Z,1.63
2023-04-05T12:51:43.093Z,2.00
2023-04-05T12:54:16.079Z,1.70
2023-04-05T12:56:42.856Z,1.07
2023-04-05T12:59:09.542Z,1.20
2023-04-05T13:01:36.316Z,1.27
2023-04-05T13:04:15.571Z,1.30
2023-04-05T13:06:46.506Z,1.40
2023-04-05T13:09:13.236Z,1.50
2023-04-05T13:11:40.369Z,1.97
2023-04-05T13:14:07.459Z,1.27
2023-04-05T13:16:34.400Z,1.63
2023-04-05T13:19:01.458Z,1.70
2023-04-05T13:21:29.206Z,1.73
2023-04-05T13:23:56.877Z,1.60
2023-04-05T13:26:23.748Z,1.53
2023-04-05T13:28:50.804Z,1.30
2023-04-05T13:31:17.752Z,1.70
2023-04-05T13:33:44.666Z,1.33
2023-04-05T13:36:13.877Z,1.43
2023-04-05T13:38:41.399Z,2.20
2023-04-05T13:41:09.531Z,1.57
2023-04-05T13:43:37.289Z,2.27
2023-04-05T13:46:04.262Z,1.17
2023-04-05T14:03:24.725Z,1.30
2023-04-05T14:05:53.855Z,1.40
2023-04-05T14:08:22.065Z,1.20
2023-04-05T14:10:48.870Z,2.63
2023-04-05T14:13:17.760Z,1.90
2023-04-05T14:15:44.424Z,5.80
2023-04-05T14:18:12.477Z,2.40
2023-04-05T14:20:39.291Z,3.13
2023-04-05T14:23:08.518Z,8.00
2023-04-05T14:25:35.619Z,1.80
2023-04-05T14:28:02.340Z,3.20
2023-04-05T14:30:29.135Z,1.90
2023-04-05T14:32:56.297Z,1.67
2023-04-05T14:35:23.146Z,1.73
2023-04-05T14:37:49.937Z,1.70
2023-04-05T14:40:16.811Z,1.70
2023-04-05T14:42:49.335Z,2.80
2023-04-05T14:45:18.189Z,5.50
2023-04-05T14:47:44.847Z,1.60
2023-04-05T14:50:11.479Z,3.50
2023-04-05T14:52:40.058Z,1.73
2023-04-05T14:55:07.791Z,5.87
2023-04-05T14:57:34.941Z,2.73
2023-04-05T15:00:03.249Z,2.90
2023-04-05T15:02:30.047Z,10.87
2023-04-05T15:05:00.644Z,2.37
2023-04-05T15:07:27.734Z,1.97
2023-04-05T15:10:25.917Z,2.53
2023-04-05T15:12:53.770Z,1.50
2023-04-05T15:15:21.532Z,2.87
2023-04-05T15:17:48.461Z,2.03
2023-04-05T15:20:20.312Z,3.07
2023-04-05T15:22:47.092Z,14.73
2023-04-05T15:25:14.110Z,12.37
2023-04-05T15:27:41.185Z,7.93
2023-04-05T15:30:08.243Z,6.27
2023-04-05T15:32:36.314Z,5.40
2023-04-05T15:35:03.045Z,20.17
2023-04-05T15:37:29.726Z,16.20
2023-04-05T15:39:56.436Z,9.60
2023-04-05T15:42:25.152Z,4.67
2023-04-05T15:44:51.789Z,4.23
2023-04-05T15:47:18.597Z,3.60
2023-04-05T15:49:45.511Z,14.50
2023-04-05T15:52:12.371Z,15.27
2023-04-05T15:54:39.139Z,8.30
2023-04-05T15:57:07.948Z,6.20
2023-04-05T15:59:34.655Z,3.40
2023-04-05T16:02:05.334Z,4.27
2023-04-05T16:04:32.096Z,4.77
2023-04-05T16:06:58.781Z,5.50
2023-04-05T16:09:25.473Z,1.57
2023-04-05T16:11:52.198Z,4.53
2023-04-05T16:14:18.880Z,8.37
2023-04-05T16:16:53.801Z,6.37
2023-04-05T16:19:21.398Z,4.70
2023-04-05T16:21:48.613Z,5.73
2023-04-05T16:24:15.324Z,4.70
2023-04-05T16:26:42.079Z,6.90
2023-04-05T16:29:09.593Z,5.73
2023-04-05T16:31:36.967Z,4.20
2023-04-05T16:34:03.802Z,4.10
2023-04-05T16:36:30.861Z,6.90
2023-04-05T16:38:57.584Z,3.90
2023-04-05T16:41:24.292Z,4.30
2023-04-05T16:43:51.479Z,3.83
2023-04-05T16:46:18.669Z,4.50
2023-04-05T16:48:45.709Z,3.60
2023-04-05T16:51:13.390Z,3.57
2023-04-05T16:53:40.164Z,3.50
2023-04-05T16:56:06.866Z,4.37
2023-04-05T16:58:33.702Z,3.67
2023-04-05T17:01:00.709Z,2.93
2023-04-05T17:03:28.048Z,3.30
2023-04-05T17:05:54.824Z,3.03
2023-04-05T17:08:21.679Z,3.17
2023-04-05T17:10:48.421Z,3.33
2023-04-05T17:13:16.193Z,3.83
2023-04-05T17:15:43.157Z,3.40
2023-04-05T17:18:11.618Z,4.40
2023-04-05T17:20:38.253Z,4.83
2023-04-05T17:23:05.028Z,4.90
2023-04-05T17:25:36.305Z,19.20
2023-04-05T17:28:03.361Z,73.93
2023-04-05T17:30:31.344Z,76.70
2023-04-05T17:32:59.566Z,51.03
2023-04-05T17:35:26.425Z,36.17
2023-04-05T17:37:57.028Z,9.27
2023-04-05T17:40:24.984Z,6.97
2023-04-05T17:42:54.809Z,7.60
2023-04-05T17:45:21.967Z,7.93
2023-04-05T17:47:48.966Z,12.20
2023-04-05T17:50:15.994Z,8.80
2023-04-05T17:52:42.835Z,4.20
2023-04-05T17:55:10.528Z,2.70
2023-04-05T17:57:37.414Z,2.57
2023-04-05T18:00:04.564Z,4.27
2023-04-05T18:02:32.897Z,5.73
2023-04-05T18:04:59.889Z,6.30
2023-04-05T18:07:27.247Z,5.87
2023-04-05T18:09:59.154Z,5.20
2023-04-05T18:12:26.030Z,4.40
2023-04-05T18:14:52.690Z,4.57
2023-04-05T18:17:20.272Z,4.57
2023-04-05T18:19:47.823Z,16.53
2023-04-05T18:22:14.892Z,12.10
2023-04-05T18:24:43.693Z,16.50
2023-04-05T18:27:11.254Z,9.30
2023-04-05T18:29:38.279Z,7.00
2023-04-05T18:32:05.694Z,7.27
2023-04-05T18:34:32.571Z,7.40
2023-04-05T18:36:59.335Z,7.90
2023-04-05T18:39:27.601Z,6.63
2023-04-05T18:41:55.484Z,9.57
2023-04-05T18:44:22.124Z,11.97
2023-04-05T18:46:50.111Z,15.00
2023-04-05T18:49:18.396Z,8.13
2023-04-05T18:51:45.704Z,5.27
2023-04-05T18:54:15.945Z,6.10
2023-04-05T18:56:42.746Z,6.90
2023-04-05T18:59:09.798Z,6.83
2023-04-05T19:01:41.005Z,9.47
2023-04-05T19:04:07.726Z,10.03
2023-04-05T19:06:35.022Z,10.27
2023-04-05T19:09:03.371Z,10.67
2023-04-05T19:11:32.062Z,12.40
2023-04-05T19:14:04.025Z,13.13
2023-04-05T19:16:34.748Z,17.03
2023-04-05T19:19:02.345Z,13.90
2023-04-05T19:21:29.332Z,13.20
2023-04-05T19:23:59.077Z,9.97
2023-04-05T19:26:25.905Z,9.23
2023-04-05T19:28:52.574Z,6.63
2023-04-05T19:31:19.662Z,8.10
2023-04-05T19:33:46.450Z,7.43
2023-04-05T19:36:13.319Z,6.63
2023-04-05T19:38:40.120Z,6.70
2023-04-05T19:41:06.951Z,6.17
2023-04-05T19:43:36.743Z,6.67
2023-04-05T19:46:06.433Z,5.70
2023-04-05T19:48:37.210Z,6.17
2023-04-05T19:51:06.838Z,6.70
2023-04-05T19:53:43.721Z,5.70
2023-04-05T19:56:11.629Z,11.00
2023-04-05T19:58:38.251Z,10.40
2023-04-05T20:01:05.801Z,8.77
2023-04-05T20:03:40.064Z,29.03
2023-04-05T20:06:06.827Z,23.70
2023-04-05T20:08:37.252Z,12.67
2023-04-05T20:11:05.636Z,7.40
2023-04-05T20:13:32.166Z,13.00
2023-04-05T20:15:59.723Z,9.87
2023-04-05T20:18:29.997Z,7.53
2023-04-05T20:20:56.731Z,14.43
2023-04-05T20:23:23.925Z,15.47
2023-04-05T20:25:50.711Z,10.97
2023-04-05T20:28:36.143Z,11.00
2023-04-05T20:31:03.116Z,8.33
2023-04-05T20:33:34.248Z,6.63
2023-04-05T20:36:01.197Z,7.13
2023-04-05T20:38:27.937Z,6.70
2023-04-05T20:40:55.017Z,5.93
2023-04-05T20:43:23.042Z,11.77
2023-04-05T20:45:54.232Z,10.13
2023-04-05T20:48:21.070Z,13.13
2023-04-05T20:50:47.727Z,6.97
2023-04-05T20:53:14.439Z,6.70
2023-04-05T20:55:41.004Z,6.53
2023-04-05T20:58:07.644Z,5.87
2023-04-05T21:00:34.253Z,5.80
2023-04-05T21:03:01.217Z,5.70
2023-04-05T21:05:27.893Z,5.80
2023-04-05T21:07:54.552Z,5.10
2023-04-05T21:10:22.055Z,5.27
2023-04-05T21:12:48.634Z,5.50
2023-04-05T21:15:16.748Z,4.77
2023-04-05T21:17:43.506Z,5.70
2023-04-05T21:20:10.182Z,5.50
2023-04-05T21:22:41.061Z,5.00
2023-04-05T21:25:08.262Z,5.50
2023-04-05T21:27:34.810Z,5.17
2023-04-05T21:30:03.204Z,4.73
2023-04-05T21:32:30.379Z,5.27
2023-04-05T21:34:56.941Z,5.07
2023-04-05T21:37:24.283Z,4.70
2023-04-05T21:39:50.878Z,5.07
2023-04-05T21:42:17.420Z,4.60
2023-04-05T21:44:44.023Z,4.50
2023-04-05T21:47:10.761Z,5.00
2023-04-05T21:49:37.402Z,5.20
2023-04-05T21:52:04.791Z,5.50
2023-04-05T21:54:31.403Z,5.13
2023-04-05T21:56:57.995Z,4.70
2023-04-05T21:59:24.733Z,4.83
2023-04-05T22:01:51.443Z,4.80
2023-04-05T22:04:18.000Z,5.30
2023-04-05T22:06:44.540Z,5.13
2023-04-05T22:09:11.960Z,5.20
2023-04-05T22:11:38.692Z,5.87
2023-04-05T22:14:05.639Z,6.03
2023-04-05T22:16:32.463Z,5.90
2023-04-05T22:18:59.182Z,5.97
2023-04-05T22:21:25.979Z,4.90
2023-04-05T22:23:52.548Z,5.60
2023-04-05T22:26:19.063Z,5.40
2023-04-05T22:28:45.722Z,6.27
2023-04-05T22:31:12.260Z,6.23
2023-04-05T22:33:38.818Z,11.50
2023-04-05T22:36:06.011Z,11.03
2023-04-05T22:38:32.559Z,8.87
2023-04-05T22:40:59.116Z,8.17
2023-04-05T22:43:29.097Z,8.73
2023-04-05T22:45:56.188Z,8.80
2023-04-05T22:48:23.124Z,8.27
2023-04-05T22:50:50.584Z,8.23
2023-04-05T22:53:17.185Z,8.67
2023-04-05T22:55:43.802Z,9.97
2023-04-05T22:58:10.554Z,10.17
2023-04-05T23:00:37.474Z,8.53
2023-04-05T23:03:04.370Z,10.70
2023-04-05T23:05:31.224Z,11.73
2023-04-05T23:07:57.767Z,9.93
2023-04-05T23:10:24.336Z,11.83
2023-04-05T23:12:51.750Z,10.73
2023-04-05T23:15:18.353Z,10.40
2023-04-05T23:17:45.052Z,10.43
2023-04-05T23:20:11.729Z,9.83
2023-04-05T23:22:38.303Z,9.50
2023-04-05T23:25:05.841Z,9.53
2023-04-05T23:27:33.219Z,9.70
2023-04-05T23:29:59.796Z,8.80
2023-04-05T23:32:27.292Z,8.70
2023-04-05T23:34:53.909Z,8.73
2023-04-05T23:37:20.498Z,7.20
2023-04-05T23:39:47.031Z,6.80
2023-04-05T23:42:13.595Z,7.00
2023-04-05T23:44:40.147Z,5.97
2023-04-05T23:47:06.684Z,6.60
2023-04-05T23:49:33.255Z,6.27
2023-04-05T23:51:59.841Z,5.23
2023-04-05T23:54:26.522Z,5.27
2023-04-05T23:56:53.168Z,5.33
2023-04-05T23:59:19.754Z,4.73
